Time;durP1;ratioP1;P1;durP2;ratioP2;P2;SDS_P1;SDS_P2;PMS_P1;PMS_P2;Temp;Humidity;BMP_temperature;BMP_pressure;BME280_temperature;BME280_humidity;BME280_pressure;Samples;Min_cycle;Max_cycle;Signal;HPM_P1;HPM_P2
2023/03/29 00:01:41;;;;;;;0.13;0.13;;;3.10;99.90;;;;;;5031525;28;20022;-76
2023/03/29 00:04:08;;;;;;;0.20;0.20;;;3.10;99.90;;;;;;4980375;28;20408;-76
2023/03/29 00:06:34;;;;;;;0.10;0.10;;;3.00;99.90;;;;;;4975839;28;20025;-77
2023/03/29 00:09:03;;;;;;;0.10;0.10;;;3.00;99.90;;;;;;5005489;28;20033;-77
2023/03/29 00:11:29;;;;;;;0.20;0.20;;;3.00;99.90;;;;;;5012061;28;20018;-76
2023/03/29 00:13:55;;;;;;;0.20;0.20;;;3.00;99.90;;;;;;5021948;28;20031;-77
2023/03/29 00:16:22;;;;;;;0.20;0.20;;;3.00;99.90;;;;;;4999261;28;20396;-76
2023/03/29 00:18:47;;;;;;;0.20;0.20;;;2.90;99.90;;;;;;5016174;28;20475;-77
2023/03/29 00:21:13;;;;;;;0.13;0.13;;;3.00;99.90;;;;;;5016268;28;20084;-76
2023/03/29 00:23:38;;;;;;;0.10;0.10;;;2.90;99.90;;;;;;5016205;28;20025;-76
2023/03/29 00:26:05;;;;;;;0.20;0.20;;;2.90;99.90;;;;;;5016439;28;20502;-75
2023/03/29 00:28:30;;;;;;;0.20;0.20;;;2.90;99.90;;;;;;5015208;28;20025;-77
2023/03/29 00:31:04;;;;;;;0.17;0.17;;;2.90;99.90;;;;;;5016244;28;20097;-77
2023/03/29 00:33:30;;;;;;;0.17;0.17;;;2.90;99.90;;;;;;5014088;28;20036;-76
2023/03/29 00:35:55;;;;;;;0.10;0.10;;;2.90;99.90;;;;;;5027960;28;20025;-76
2023/03/29 00:38:34;;;;;;;0.13;0.13;;;2.80;99.90;;;;;;5059123;23;20124;-76
2023/03/29 00:41:03;;;;;;;0.20;0.20;;;2.90;99.90;;;;;;5032990;28;20022;-76
2023/03/29 00:43:29;;;;;;;0.10;0.10;;;2.90;99.90;;;;;;4998313;28;20042;-76
2023/03/29 00:45:54;;;;;;;0.20;0.20;;;2.90;99.90;;;;;;5015679;28;20014;-76
2023/03/29 00:48:25;;;;;;;0.20;0.20;;;2.90;99.90;;;;;;5015559;28;20502;-76
2023/03/29 00:51:01;;;;;;;0.20;0.20;;;2.90;99.90;;;;;;5015915;28;20026;-76
2023/03/29 00:53:38;;;;;;;0.10;0.10;;;2.90;99.90;;;;;;5016255;28;20430;-76
2023/03/29 00:56:11;;;;;;;0.10;0.10;;;2.90;99.90;;;;;;5015097;28;20033;-77
2023/03/29 00:58:50;;;;;;;0.10;0.10;;;2.90;99.90;;;;;;5021464;28;20057;-77
2023/03/29 01:02:09;;;;;;;0.10;0.10;;;3.00;99.90;;;;;;5017742;28;20025;-76
2023/03/29 01:04:44;;;;;;;0.10;0.10;;;3.00;99.90;;;;;;4964124;28;20061;-77
2023/03/29 01:07:16;;;;;;;0.20;0.20;;;3.00;99.90;;;;;;5011987;23;20068;-76
2023/03/29 01:09:46;;;;;;;0.20;0.20;;;3.00;99.90;;;;;;5017571;28;20498;-77
2023/03/29 01:12:37;;;;;;;0.20;0.20;;;3.00;99.90;;;;;;5028544;28;20156;-77
2023/03/29 01:15:17;;;;;;;0.20;0.20;;;3.10;99.90;;;;;;4996987;28;20037;-77
2023/03/29 01:17:49;;;;;;;0.10;0.10;;;3.10;99.90;;;;;;5014663;28;20021;-77
2023/03/29 01:20:24;;;;;;;0.20;0.20;;;3.20;99.90;;;;;;5014654;28;20113;-77
2023/03/29 01:23:17;;;;;;;0.20;0.20;;;3.20;99.90;;;;;;5013467;28;20529;-77
2023/03/29 01:25:59;;;;;;;0.20;0.20;;;3.20;99.90;;;;;;5015370;28;20029;-76
2023/03/29 01:28:33;;;;;;;0.10;0.10;;;3.20;99.90;;;;;;5012167;23;20045;-76
2023/03/29 01:31:07;;;;;;;0.20;0.20;;;3.30;99.90;;;;;;4995617;28;20019;-77
2023/03/29 01:33:41;;;;;;;0.20;0.20;;;3.30;99.90;;;;;;5013003;28;20040;-76
2023/03/29 01:36:33;;;;;;;;;;;3.40;99.90;;;;;;5014127;28;20029;-77
2023/03/29 01:39:04;;;;;;;0.20;0.20;;;3.40;99.90;;;;;;4994044;28;19905;-77
2023/03/29 01:42:15;;;;;;;0.20;0.20;;;3.40;99.90;;;;;;4993967;28;20045;-77
2023/03/29 01:44:51;;;;;;;0.10;0.10;;;3.40;99.90;;;;;;4985008;28;20046;-77
2023/03/29 01:47:41;;;;;;;0.20;0.20;;;3.40;99.90;;;;;;5068610;23;20044;-77
2023/03/29 01:50:45;;;;;;;0.20;0.20;;;3.50;99.90;;;;;;5034950;28;20521;-77
2023/03/29 01:53:16;;;;;;;0.25;0.25;;;3.50;99.90;;;;;;5024759;28;20114;-77
2023/03/29 01:55:48;;;;;;;0.20;0.20;;;3.50;99.90;;;;;;4997310;28;20145;-76
2023/03/29 01:58:15;;;;;;;0.20;0.20;;;3.50;99.90;;;;;;5004191;28;20022;-76
2023/03/29 02:00:42;;;;;;;0.20;0.20;;;3.50;99.90;;;;;;5033935;28;20088;-76
2023/03/29 02:03:09;;;;;;;0.20;0.20;;;3.50;99.90;;;;;;5030832;28;20557;-77
2023/03/29 02:05:37;;;;;;;0.13;0.13;;;3.50;99.90;;;;;;5014622;28;20026;-77
2023/03/29 02:08:06;;;;;;;0.20;0.20;;;3.50;99.90;;;;;;5014158;28;20025;-77
2023/03/29 02:10:33;;;;;;;0.20;0.20;;;3.50;99.90;;;;;;5029688;28;20021;-77
2023/03/29 02:12:59;;;;;;;0.20;0.20;;;3.60;99.90;;;;;;5033725;28;20021;-77
2023/03/29 02:15:25;;;;;;;0.10;0.10;;;3.50;99.90;;;;;;5033870;28;20020;-77
2023/03/29 02:17:51;;;;;;;0.15;0.15;;;3.60;99.90;;;;;;5015766;28;20033;-77
2023/03/29 02:20:28;;;;;;;0.20;0.20;;;3.60;99.90;;;;;;5016374;28;20113;-77
2023/03/29 02:23:05;;;;;;;0.20;0.20;;;3.60;99.90;;;;;;5033377;28;20498;-77
2023/03/29 02:25:31;;;;;;;0.13;0.13;;;3.60;99.90;;;;;;5033558;28;20052;-77
2023/03/29 02:27:58;;;;;;;0.20;0.20;;;3.60;99.90;;;;;;5034153;28;20105;-76
2023/03/29 02:30:29;;;;;;;0.22;0.22;;;3.60;99.90;;;;;;5033635;28;20113;-77
2023/03/29 02:33:25;;;;;;;0.20;0.20;;;3.60;99.90;;;;;;5033951;28;20021;-77
2023/03/29 02:35:56;;;;;;;0.20;0.20;;;3.60;99.90;;;;;;5032246;28;20037;-77
2023/03/29 02:38:24;;;;;;;0.10;0.10;;;3.60;99.90;;;;;;5033652;28;20053;-77
2023/03/29 02:40:51;;;;;;;0.10;0.10;;;3.60;99.90;;;;;;5033091;28;20021;-77
2023/03/29 02:43:18;;;;;;;0.20;0.20;;;3.60;99.90;;;;;;5015804;28;20463;-77
2023/03/29 02:45:45;;;;;;;0.15;0.15;;;3.60;99.90;;;;;;5033282;28;20029;-77
2023/03/29 02:48:15;;;;;;;0.20;0.20;;;3.60;99.90;;;;;;5033528;28;20026;-77
2023/03/29 02:50:43;;;;;;;0.20;0.20;;;3.60;99.90;;;;;;5015693;28;20022;-77
2023/03/29 02:53:17;;;;;;;0.15;0.15;;;3.60;99.90;;;;;;5033403;28;20036;-77
2023/03/29 02:55:45;;;;;;;0.10;0.10;;;3.70;99.90;;;;;;5033015;28;20017;-77
2023/03/29 02:58:12;;;;;;;0.20;0.20;;;3.60;99.90;;;;;;5033133;28;20029;-77
2023/03/29 03:00:43;;;;;;;0.20;0.20;;;3.60;99.90;;;;;;5033280;28;20143;-77
2023/03/29 03:03:10;;;;;;;0.10;0.10;;;3.60;99.90;;;;;;5032958;28;20116;-77
2023/03/29 03:05:37;;;;;;;0.10;0.10;;;3.60;99.90;;;;;;5015866;28;20021;-77
2023/03/29 03:08:03;;;;;;;0.20;0.20;;;3.60;99.90;;;;;;5015081;28;20055;-77
2023/03/29 03:10:29;;;;;;;0.10;0.10;;;3.60;99.90;;;;;;4998427;28;20025;-77
2023/03/29 03:12:55;;;;;;;0.20;0.20;;;3.60;99.90;;;;;;4995528;28;20018;-77
2023/03/29 03:15:20;;;;;;;0.10;0.10;;;3.60;99.90;;;;;;5018709;28;20018;-77
2023/03/29 03:17:48;;;;;;;0.17;0.17;;;3.70;99.90;;;;;;5014753;28;20033;-77
2023/03/29 03:20:13;;;;;;;0.13;0.13;;;3.60;99.90;;;;;;5014437;28;20123;-77
2023/03/29 03:22:41;;;;;;;0.15;0.15;;;3.60;99.90;;;;;;5015059;28;20080;-77
2023/03/29 03:25:09;;;;;;;0.20;0.20;;;3.60;99.90;;;;;;5024604;28;20030;-77
2023/03/29 03:27:35;;;;;;;0.20;0.20;;;3.60;99.90;;;;;;5011856;28;20026;-77
2023/03/29 03:30:04;;;;;;;0.10;0.10;;;3.60;99.90;;;;;;5021195;28;20050;-77
2023/03/29 03:32:32;;;;;;;0.17;0.17;;;3.60;99.90;;;;;;5033265;28;20032;-77
2023/03/29 03:34:58;;;;;;;0.10;0.10;;;3.60;99.90;;;;;;5018465;28;20037;-77
2023/03/29 03:37:24;;;;;;;0.20;0.20;;;3.60;99.90;;;;;;5010786;28;20030;-77
2023/03/29 03:39:50;;;;;;;0.10;0.10;;;3.70;99.90;;;;;;5024636;28;20040;-77
2023/03/29 03:42:16;;;;;;;0.20;0.20;;;3.70;99.90;;;;;;5032993;28;20021;-77
2023/03/29 03:44:43;;;;;;;0.20;0.20;;;3.70;99.90;;;;;;5032159;28;20394;-77
2023/03/29 03:47:09;;;;;;;0.20;0.20;;;3.70;99.90;;;;;;5053434;23;20065;-77
2023/03/29 03:49:34;;;;;;;0.20;0.20;;;3.80;99.90;;;;;;4992542;28;20058;-77
2023/03/29 03:52:00;;;;;;;0.10;0.10;;;3.70;99.90;;;;;;4994896;28;20503;-77
2023/03/29 03:54:26;;;;;;;0.10;0.10;;;3.70;99.90;;;;;;4995849;28;20023;-77
2023/03/29 03:56:51;;;;;;;0.10;0.10;;;3.70;99.90;;;;;;4995646;28;20023;-77
2023/03/29 03:59:17;;;;;;;0.10;0.10;;;3.80;99.90;;;;;;4997214;28;20041;-77
2023/03/29 04:01:43;;;;;;;0.20;0.20;;;3.70;99.90;;;;;;4997754;28;20030;-78
2023/03/29 04:04:10;;;;;;;0.20;0.20;;;3.70;99.90;;;;;;4996189;28;20038;-77
2023/03/29 04:07:01;;;;;;;0.20;0.20;;;3.70;99.90;;;;;;5012826;23;20422;-77
2023/03/29 04:09:32;;;;;;;0.30;0.30;;;3.70;99.90;;;;;;4997316;28;20042;-77
2023/03/29 04:11:58;;;;;;;0.20;0.20;;;3.70;99.90;;;;;;4979604;28;20480;-77
2023/03/29 04:14:25;;;;;;;0.10;0.10;;;3.70;99.90;;;;;;4997006;28;20038;-76
2023/03/29 04:16:51;;;;;;;0.20;0.20;;;3.70;99.90;;;;;;4996866;28;20551;-77
2023/03/29 04:19:17;;;;;;;0.25;0.25;;;3.70;99.90;;;;;;4979819;28;20041;-77
2023/03/29 04:21:44;;;;;;;0.20;0.20;;;3.60;99.90;;;;;;4979251;28;20027;-77
2023/03/29 04:24:10;;;;;;;0.17;0.17;;;3.60;99.90;;;;;;4996926;28;20472;-77
2023/03/29 04:26:36;;;;;;;0.20;0.20;;;3.60;99.90;;;;;;4996974;28;20026;-77
2023/03/29 04:29:03;;;;;;;0.20;0.20;;;3.60;99.90;;;;;;4979010;28;20022;-77
2023/03/29 04:31:29;;;;;;;0.20;0.20;;;3.60;99.90;;;;;;4979436;28;20030;-77
2023/03/29 04:33:55;;;;;;;0.15;0.15;;;3.60;99.90;;;;;;4996494;28;20022;-77
2023/03/29 04:36:20;;;;;;;0.20;0.20;;;3.60;99.90;;;;;;4996926;28;20033;-77
2023/03/29 04:38:46;;;;;;;0.20;0.20;;;3.60;99.90;;;;;;4978820;28;20108;-78
2023/03/29 04:41:12;;;;;;;0.20;0.20;;;3.60;99.90;;;;;;4973767;28;20035;-77
2023/03/29 04:43:38;;;;;;;0.20;0.20;;;3.60;99.90;;;;;;4976921;28;20078;-77
2023/03/29 04:46:06;;;;;;;0.10;0.10;;;3.60;99.90;;;;;;4976951;28;20390;-78
2023/03/29 04:48:32;;;;;;;0.13;0.13;;;3.60;99.90;;;;;;4975282;28;20396;-77
2023/03/29 04:50:58;;;;;;;0.10;0.10;;;3.60;99.90;;;;;;4959723;28;20015;-77
2023/03/29 04:53:24;;;;;;;0.10;0.10;;;3.60;99.90;;;;;;4977102;28;20030;-77
2023/03/29 04:55:49;;;;;;;0.10;0.10;;;3.60;99.90;;;;;;4976382;28;20027;-77
2023/03/29 04:58:15;;;;;;;0.20;0.20;;;3.60;99.90;;;;;;4977023;28;20033;-77
2023/03/29 05:00:41;;;;;;;0.20;0.20;;;3.60;99.90;;;;;;4981800;28;20031;-77
2023/03/29 05:03:10;;;;;;;0.10;0.10;;;3.60;99.90;;;;;;4995720;28;20022;-77
2023/03/29 05:05:36;;;;;;;0.13;0.13;;;3.60;99.90;;;;;;4976146;28;20080;-78
2023/03/29 05:08:02;;;;;;;0.20;0.20;;;3.50;99.90;;;;;;4976707;28;20027;-77
2023/03/29 05:10:27;;;;;;;0.20;0.20;;;3.50;99.90;;;;;;4994590;28;20018;-77
2023/03/29 05:12:53;;;;;;;0.20;0.20;;;3.50;99.90;;;;;;4980862;28;20154;-77
2023/03/29 05:15:22;;;;;;;0.20;0.20;;;3.50;99.90;;;;;;4959571;28;20015;-77
2023/03/29 05:17:48;;;;;;;0.10;0.10;;;3.50;99.90;;;;;;5022403;23;20060;-77
2023/03/29 05:20:16;;;;;;;0.10;0.10;;;3.50;99.90;;;;;;5035519;28;20067;-77
2023/03/29 05:22:44;;;;;;;0.20;0.20;;;3.50;99.90;;;;;;5035429;28;20029;-77
2023/03/29 05:25:17;;;;;;;0.10;0.10;;;3.50;99.90;;;;;;5035691;28;20030;-77
2023/03/29 05:27:44;;;;;;;0.10;0.10;;;3.50;99.90;;;;;;5017235;28;20132;-77
2023/03/29 05:30:11;;;;;;;0.20;0.20;;;3.50;99.90;;;;;;5015729;28;20336;-76
2023/03/29 05:32:37;;;;;;;0.20;0.20;;;3.50;99.90;;;;;;5015266;28;20025;-77
2023/03/29 05:35:03;;;;;;;0.20;0.20;;;3.60;99.90;;;;;;5030578;28;20084;-77
2023/03/29 05:37:30;;;;;;;0.15;0.15;;;3.60;99.90;;;;;;5035329;28;20112;-77
2023/03/29 05:39:56;;;;;;;0.20;0.20;;;3.60;99.90;;;;;;5025486;28;20483;-77
2023/03/29 05:42:22;;;;;;;0.20;0.20;;;3.60;99.90;;;;;;5011951;28;20065;-77
2023/03/29 05:44:47;;;;;;;0.20;0.20;;;3.60;99.90;;;;;;5014107;28;20049;-77
2023/03/29 05:47:13;;;;;;;0.17;0.17;;;3.60;99.90;;;;;;5022322;28;20066;-77
2023/03/29 05:49:38;;;;;;;0.20;0.20;;;3.60;99.90;;;;;;5034968;28;20440;-77
2023/03/29 05:52:05;;;;;;;0.13;0.13;;;3.60;99.90;;;;;;5035041;28;20029;-77
2023/03/29 05:54:31;;;;;;;0.20;0.20;;;3.60;99.90;;;;;;5034713;28;20028;-77
2023/03/29 05:56:59;;;;;;;0.10;0.10;;;3.60;99.90;;;;;;5030407;28;20037;-77
2023/03/29 05:59:27;;;;;;;0.20;0.20;;;3.70;99.90;;;;;;5033979;28;20037;-77
2023/03/29 06:01:52;;;;;;;0.20;0.20;;;3.70;99.90;;;;;;5034409;28;20022;-77
2023/03/29 06:04:18;;;;;;;0.20;0.20;;;3.70;99.90;;;;;;5034768;28;20026;-77
2023/03/29 06:06:43;;;;;;;0.20;0.20;;;3.70;99.90;;;;;;5083679;23;20061;-77
2023/03/29 06:09:09;;;;;;;0.20;0.20;;;3.80;99.90;;;;;;5033985;28;20037;-77
2023/03/29 06:11:35;;;;;;;0.20;0.20;;;3.90;99.90;;;;;;5034439;28;20029;-77
2023/03/29 06:14:01;;;;;;;0.20;0.20;;;3.90;99.90;;;;;;5016788;28;20478;-77
2023/03/29 06:16:27;;;;;;;0.20;0.20;;;4.00;99.90;;;;;;5033799;28;20479;-77
2023/03/29 06:18:53;;;;;;;0.10;0.10;;;4.00;99.90;;;;;;5034472;28;20079;-77
2023/03/29 06:21:23;;;;;;;0.20;0.20;;;4.10;99.90;;;;;;5034749;28;20026;-77
2023/03/29 06:23:56;;;;;;;0.20;0.20;;;4.10;99.90;;;;;;5028815;28;20026;-77
2023/03/29 06:26:21;;;;;;;0.10;0.10;;;4.10;99.90;;;;;;5015175;28;20571;-77
2023/03/29 06:28:47;;;;;;;0.20;0.20;;;4.10;99.90;;;;;;5014055;28;20349;-77
2023/03/29 06:31:13;;;;;;;0.10;0.10;;;4.20;99.90;;;;;;5028846;28;20022;-77
2023/03/29 06:33:40;;;;;;;0.20;0.20;;;4.20;99.90;;;;;;5016134;28;20033;-77
2023/03/29 06:36:06;;;;;;;0.20;0.20;;;4.20;99.90;;;;;;5009301;28;20033;-77
2023/03/29 06:38:32;;;;;;;0.20;0.20;;;4.30;99.90;;;;;;4996669;28;20407;-77
2023/03/29 06:41:06;;;;;;;0.20;0.20;;;4.30;99.90;;;;;;5019878;28;20072;-77
2023/03/29 06:43:32;;;;;;;0.30;0.30;;;4.30;99.90;;;;;;5017016;28;20556;-77
2023/03/29 06:45:58;;;;;;;0.20;0.20;;;4.40;99.90;;;;;;5034212;28;20442;-77
2023/03/29 06:48:23;;;;;;;0.20;0.20;;;4.40;99.90;;;;;;5014846;28;20030;-77
2023/03/29 06:50:49;;;;;;;0.20;0.20;;;4.40;99.90;;;;;;5014776;28;20101;-77
2023/03/29 06:53:15;;;;;;;0.20;0.20;;;4.40;99.90;;;;;;5014241;28;20423;-77
2023/03/29 06:55:41;;;;;;;0.15;0.15;;;4.50;99.90;;;;;;5014479;28;20542;-77
2023/03/29 06:58:08;;;;;;;0.20;0.20;;;4.50;99.90;;;;;;5026936;28;20030;-77
2023/03/29 07:00:36;;;;;;;0.10;0.10;;;4.50;99.90;;;;;;5016929;28;20056;-77
2023/03/29 07:03:05;;;;;;;0.10;0.10;;;4.60;99.90;;;;;;5033342;28;20068;-77
2023/03/29 07:05:31;;;;;;;0.30;0.30;;;4.60;99.90;;;;;;5016554;28;20021;-77
2023/03/29 07:07:59;;;;;;;0.20;0.20;;;4.70;99.90;;;;;;5009513;28;20045;-77
2023/03/29 07:10:46;;;;;;;0.10;0.10;;;4.70;99.90;;;;;;5028362;28;20017;-77
2023/03/29 07:13:12;;;;;;;0.10;0.10;;;4.70;99.90;;;;;;5019938;28;20026;-77
2023/03/29 07:15:40;;;;;;;0.20;0.20;;;4.70;99.90;;;;;;5014267;28;20398;-77
2023/03/29 07:18:07;;;;;;;0.20;0.20;;;4.80;99.90;;;;;;5043183;23;20049;-77
2023/03/29 07:20:32;;;;;;;0.20;0.20;;;4.90;99.90;;;;;;5012747;28;20522;-77
2023/03/29 07:22:58;;;;;;;0.20;0.20;;;4.90;99.90;;;;;;5026687;28;20030;-77
2023/03/29 07:25:26;;;;;;;0.20;0.20;;;4.90;99.90;;;;;;5034938;28;20037;-78
2023/03/29 07:27:52;;;;;;;0.10;0.10;;;5.00;99.90;;;;;;5040640;28;20013;-77
2023/03/29 07:30:20;;;;;;;0.20;0.20;;;5.10;99.90;;;;;;5022681;28;20471;-77
2023/03/29 07:32:46;;;;;;;0.10;0.10;;;5.00;99.90;;;;;;5040041;28;20033;-77
2023/03/29 07:35:13;;;;;;;0.10;0.10;;;5.10;99.90;;;;;;5040197;28;20027;-78
2023/03/29 07:37:41;;;;;;;0.25;0.25;;;5.20;99.90;;;;;;5040169;28;20091;-76
2023/03/29 07:40:11;;;;;;;0.10;0.10;;;5.30;99.90;;;;;;5040756;28;20032;-78
2023/03/29 07:42:38;;;;;;;0.20;0.20;;;5.40;99.90;;;;;;5021872;28;20033;-78
2023/03/29 07:45:06;;;;;;;0.20;0.20;;;5.50;99.90;;;;;;5041783;28;20033;-78
2023/03/29 07:47:33;;;;;;;0.10;0.10;;;5.50;99.90;;;;;;5023623;28;20510;-78
2023/03/29 07:50:00;;;;;;;0.10;0.10;;;5.50;99.90;;;;;;5021826;28;20030;-77
2023/03/29 07:52:28;;;;;;;0.20;0.20;;;5.50;99.90;;;;;;5039013;28;20049;-76
2023/03/29 07:54:55;;;;;;;0.20;0.20;;;5.60;99.90;;;;;;5038920;28;20544;-77
2023/03/29 07:57:23;;;;;;;0.10;0.10;;;5.50;99.90;;;;;;5038765;28;20033;-77
2023/03/29 07:59:48;;;;;;;0.13;0.13;;;5.60;99.90;;;;;;5038860;28;20169;-77
2023/03/29 08:02:14;;;;;;;0.10;0.10;;;5.70;99.90;;;;;;5039336;28;20122;-77
2023/03/29 08:04:40;;;;;;;0.10;0.10;;;5.80;99.90;;;;;;5039202;28;20112;-77
2023/03/29 08:07:06;;;;;;;0.13;0.13;;;5.80;99.90;;;;;;5039119;28;20160;-77
2023/03/29 08:09:31;;;;;;;0.20;0.20;;;5.80;99.90;;;;;;5037714;28;20395;-77
2023/03/29 08:11:57;;;;;;;0.20;0.20;;;5.80;99.90;;;;;;5037301;28;20033;-77
2023/03/29 08:14:23;;;;;;;0.20;0.20;;;5.70;99.90;;;;;;5037632;28;20560;-77
2023/03/29 08:16:51;;;;;;;0.10;0.10;;;5.70;99.90;;;;;;5040185;28;20034;-78
2023/03/29 08:19:17;;;;;;;0.10;0.10;;;5.80;99.90;;;;;;5040634;28;20043;-77
2023/03/29 08:21:43;;;;;;;0.20;0.20;;;5.80;99.90;;;;;;5039933;28;20025;-77
2023/03/29 08:24:08;;;;;;;0.10;0.10;;;5.70;99.90;;;;;;5041113;28;20030;-77
2023/03/29 08:28:59;;;;;;;0.20;0.20;;;5.70;99.90;;;;;;5079877;23;20049;-76
2023/03/29 08:31:25;;;;;;;0.20;0.20;;;5.60;99.90;;;;;;5040198;28;20013;-77
2023/03/29 08:33:50;;;;;;;0.20;0.20;;;5.60;99.90;;;;;;5042383;28;20395;-79
2023/03/29 08:36:16;;;;;;;0.10;0.10;;;5.50;99.90;;;;;;5024430;28;20029;-75
2023/03/29 08:38:45;;;;;;;0.20;0.20;;;5.50;99.90;;;;;;4998924;28;20435;-78
2023/03/29 08:41:29;;;;;;;0.10;0.10;;;5.50;99.90;;;;;;5039970;28;20063;-78
2023/03/29 08:44:14;;;;;;;0.17;0.17;;;5.60;99.90;;;;;;5039913;28;20386;-78
2023/03/29 08:47:08;;;;;;;0.20;0.20;;;5.50;99.90;;;;;;5031555;23;20026;-79
2023/03/29 08:49:37;;;;;;;0.20;0.20;;;5.50;99.90;;;;;;5022393;28;20171;-79
2023/03/29 08:52:20;;;;;;;0.20;0.20;;;5.40;99.90;;;;;;5005782;28;20414;-79
2023/03/29 08:54:48;;;;;;;0.20;0.20;;;5.40;99.90;;;;;;5006486;28;20044;-79
2023/03/29 08:57:16;;;;;;;0.10;0.10;;;5.40;99.90;;;;;;5022218;28;20018;-79
2023/03/29 08:59:45;;;;;;;0.20;0.20;;;5.40;99.90;;;;;;5020691;28;20052;-77
2023/03/29 09:02:16;;;;;;;0.20;0.20;;;5.40;99.90;;;;;;5003969;28;20026;-78
2023/03/29 09:04:42;;;;;;;0.20;0.20;;;5.40;99.90;;;;;;5020966;28;20045;-78
2023/03/29 09:07:08;;;;;;;0.20;0.20;;;5.50;99.90;;;;;;5020281;28;20026;-78
2023/03/29 09:09:34;;;;;;;0.20;0.20;;;5.40;99.90;;;;;;5020198;28;20032;-78
2023/03/29 09:12:15;;;;;;;0.20;0.20;;;5.50;99.90;;;;;;5019532;28;20491;-78
2023/03/29 09:15:05;;;;;;;0.20;0.20;;;5.50;99.90;;;;;;5020754;28;20026;-78
2023/03/29 09:17:40;;;;;;;0.20;0.20;;;5.50;99.90;;;;;;5020674;28;20033;-78
2023/03/29 09:20:18;;;;;;;0.20;0.20;;;5.50;99.90;;;;;;5021412;28;20034;-78
2023/03/29 09:23:05;;;;;;;0.20;0.20;;;5.50;99.90;;;;;;5023210;28;20036;-78
2023/03/29 09:26:08;;;;;;;0.20;0.20;;;5.50;99.90;;;;;;5023180;28;20045;-78
2023/03/29 09:28:59;;;;;;;0.20;0.20;;;5.60;99.90;;;;;;5022041;28;20365;-78
2023/03/29 09:31:32;;;;;;;0.20;0.20;;;5.60;99.90;;;;;;5020529;28;20026;-77
2023/03/29 09:34:03;;;;;;;0.20;0.20;;;5.60;99.90;;;;;;5016763;28;20036;-77
2023/03/29 09:36:40;;;;;;;0.20;0.20;;;5.60;99.90;;;;;;5018716;28;20033;-77
2023/03/29 09:39:10;;;;;;;0.20;0.20;;;5.60;99.90;;;;;;5019026;28;20059;-78
2023/03/29 09:41:41;;;;;;;0.20;0.20;;;5.70;99.90;;;;;;5019978;28;20128;-78
2023/03/29 09:44:12;;;;;;;0.20;0.20;;;5.70;99.90;;;;;;5017455;28;20022;-78
2023/03/29 09:46:52;;;;;;;0.20;0.20;;;5.80;99.90;;;;;;5017286;28;20365;-78
2023/03/29 09:49:23;;;;;;;0.20;0.20;;;5.80;99.90;;;;;;5016191;28;20049;-78
2023/03/29 09:51:50;;;;;;;0.20;0.20;;;5.80;99.90;;;;;;5018433;28;20033;-77
2023/03/29 09:54:15;;;;;;;0.10;0.10;;;5.80;99.90;;;;;;4999193;28;20422;-77
2023/03/29 09:59:12;;;;;;;0.10;0.10;;;5.80;99.90;;;;;;5022564;28;20042;-77
2023/03/29 10:01:40;;;;;;;0.20;0.20;;;5.80;99.90;;;;;;5014686;28;20037;-77
2023/03/29 10:04:08;;;;;;;0.20;0.20;;;5.80;99.90;;;;;;5018575;28;20029;-77
2023/03/29 10:06:35;;;;;;;0.10;0.10;;;5.90;99.90;;;;;;5032117;28;20051;-77
2023/03/29 10:09:03;;;;;;;0.20;0.20;;;5.90;99.90;;;;;;5034259;28;20026;-77
2023/03/29 10:11:37;;;;;;;0.20;0.20;;;6.00;99.90;;;;;;5023672;28;20022;-77
2023/03/29 10:14:24;;;;;;;0.20;0.20;;;6.00;99.90;;;;;;4997771;28;20033;-77
2023/03/29 10:16:55;;;;;;;0.28;0.28;;;5.90;99.90;;;;;;5000758;28;20038;-77
2023/03/29 10:19:25;;;;;;;0.20;0.20;;;6.10;99.90;;;;;;5014734;28;20391;-77
2023/03/29 10:21:52;;;;;;;0.20;0.20;;;6.10;99.90;;;;;;5014921;28;20026;-77
2023/03/29 10:24:23;;;;;;;0.20;0.20;;;6.00;99.90;;;;;;5012929;28;20025;-77
2023/03/29 10:26:54;;;;;;;0.20;0.20;;;6.00;99.90;;;;;;5014294;28;20072;-77
2023/03/29 10:29:24;;;;;;;0.13;0.13;;;6.00;99.90;;;;;;5013507;28;20487;-77
2023/03/29 10:31:50;;;;;;;0.20;0.20;;;6.00;99.90;;;;;;5013127;28;20109;-77
2023/03/29 10:34:17;;;;;;;0.20;0.20;;;6.00;99.90;;;;;;5014266;28;20057;-77
2023/03/29 10:36:51;;;;;;;0.10;0.10;;;6.00;99.90;;;;;;4996181;28;20037;-77
2023/03/29 10:39:17;;;;;;;0.20;0.20;;;6.10;99.90;;;;;;4996650;28;20026;-77
2023/03/29 10:41:44;;;;;;;0.20;0.20;;;6.00;99.90;;;;;;4991280;28;20060;-77
2023/03/29 10:44:29;;;;;;;0.13;0.13;;;6.10;99.90;;;;;;4986544;28;20026;-77
2023/03/29 10:46:54;;;;;;;0.20;0.20;;;6.10;99.90;;;;;;5014186;28;20068;-77
2023/03/29 10:49:22;;;;;;;0.13;0.13;;;6.20;99.90;;;;;;5022233;28;20025;-77
2023/03/29 10:51:49;;;;;;;0.20;0.20;;;6.20;99.90;;;;;;5033360;28;20021;-77
2023/03/29 10:54:20;;;;;;;0.20;0.20;;;6.20;99.90;;;;;;5030662;28;21360;-77
2023/03/29 10:56:53;;;;;;;0.10;0.10;;;6.30;99.90;;;;;;5034121;28;20395;-77
2023/03/29 10:59:45;;;;;;;0.13;0.13;;;6.40;99.90;;;;;;5002888;28;20034;-76
2023/03/29 11:02:13;;;;;;;0.10;0.10;;;6.50;99.90;;;;;;4998864;28;20099;-78
2023/03/29 11:05:04;;;;;;;0.10;0.10;;;6.60;99.90;;;;;;5013534;28;20030;-78
2023/03/29 11:07:39;;;;;;;0.10;0.10;;;6.60;99.90;;;;;;5075972;23;20054;-78
2023/03/29 11:10:32;;;;;;;0.20;0.20;;;6.80;99.90;;;;;;5040023;28;20072;-78
2023/03/29 11:13:10;;;;;;;0.20;0.20;;;6.60;99.90;;;;;;5033642;28;20022;-79
2023/03/29 11:16:04;;;;;;;0.10;0.10;;;6.60;99.90;;;;;;5017005;28;20065;-79
2023/03/29 11:18:55;;;;;;;0.15;0.15;;;6.60;99.90;;;;;;5003590;28;20092;-78
2023/03/29 11:21:29;;;;;;;0.20;0.20;;;6.60;99.90;;;;;;5018965;28;20029;-79
2023/03/29 11:24:27;;;;;;;0.20;0.20;;;6.60;99.90;;;;;;5015370;28;20037;-77
2023/03/29 11:27:12;;;;;;;0.10;0.10;;;6.60;99.90;;;;;;5015996;28;20040;-79
2023/03/29 11:30:09;;;;;;;0.20;0.20;;;6.50;99.90;;;;;;5018606;28;20033;-78
2023/03/29 11:32:56;;;;;;;0.20;0.20;;;6.60;99.90;;;;;;5019288;28;20018;-78
2023/03/29 11:35:38;;;;;;;0.20;0.20;;;6.50;99.90;;;;;;5014994;28;20047;-76
2023/03/29 11:38:12;;;;;;;0.10;0.10;;;6.60;99.90;;;;;;5011735;28;20034;-79
2023/03/29 11:40:46;;;;;;;0.20;0.20;;;6.60;99.90;;;;;;5009837;28;20022;-78
2023/03/29 11:43:24;;;;;;;0.10;0.10;;;6.60;99.90;;;;;;5015102;28;20057;-78
2023/03/29 11:45:54;;;;;;;0.20;0.20;;;6.60;99.90;;;;;;4997231;28;20081;-78
2023/03/29 11:48:30;;;;;;;0.20;0.20;;;6.60;99.90;;;;;;4998644;28;20026;-79
2023/03/29 11:51:06;;;;;;;0.17;0.17;;;6.70;99.90;;;;;;4981258;28;20559;-78
2023/03/29 11:53:55;;;;;;;0.20;0.20;;;6.70;99.90;;;;;;4979219;28;20407;-77
2023/03/29 11:59:11;;;;;;;0.20;0.20;;;6.90;99.90;;;;;;5054646;23;20109;-78
2023/03/29 12:01:47;;;;;;;0.20;0.20;;;6.90;99.90;;;;;;4980330;28;20026;-78
2023/03/29 12:04:21;;;;;;;0.20;0.20;;;6.80;99.90;;;;;;4998526;28;20038;-77
2023/03/29 12:07:16;;;;;;;0.20;0.20;;;6.90;99.90;;;;;;5017815;28;20025;-77
2023/03/29 12:09:50;;;;;;;0.10;0.10;;;7.00;99.90;;;;;;5017789;28;20036;-79
2023/03/29 12:12:28;;;;;;;0.20;0.20;;;7.10;99.90;;;;;;5035214;28;20025;-78
2023/03/29 12:14:59;;;;;;;0.10;0.10;;;7.10;99.90;;;;;;5038504;28;20087;-80
2023/03/29 12:17:40;;;;;;;0.20;0.20;;;7.10;99.90;;;;;;5038657;28;20498;-78
2023/03/29 12:20:28;;;;;;;0.20;0.20;;;7.10;99.90;;;;;;5019555;28;20463;-79
2023/03/29 12:22:54;;;;;;;0.10;0.10;;;7.00;99.90;;;;;;5019512;28;20137;-77
2023/03/29 12:25:36;;;;;;;0.10;0.10;;;7.10;99.90;;;;;;5012313;28;20021;-79
2023/03/29 12:28:33;;;;;;;0.10;0.10;;;7.10;99.90;;;;;;5022347;28;20052;-78
2023/03/29 12:31:27;;;;;;;0.20;0.20;;;7.20;99.90;;;;;;5001286;28;20030;-80
2023/03/29 12:34:11;;;;;;;0.17;0.17;;;7.20;99.90;;;;;;4984563;28;20065;-79
2023/03/29 12:37:34;;;;;;;0.10;0.10;;;7.10;99.90;;;;;;4997533;28;20037;-78
2023/03/29 12:40:10;;;;;;;0.10;0.10;;;7.20;99.90;;;;;;4977473;28;20518;-79
2023/03/29 12:42:50;;;;;;;0.20;0.20;;;7.10;99.90;;;;;;5029542;28;20029;-77
2023/03/29 12:45:30;;;;;;;0.20;0.20;;;7.10;99.90;;;;;;5002667;28;20097;-78
2023/03/29 12:47:56;;;;;;;0.20;0.20;;;7.10;99.90;;;;;;5004016;28;20036;-78
2023/03/29 12:50:49;;;;;;;0.20;0.20;;;7.20;99.90;;;;;;5022595;28;20127;-78
2023/03/29 12:53:18;;;;;;;0.15;0.15;;;7.20;99.90;;;;;;5010428;28;20411;-76
2023/03/29 12:55:48;;;;;;;0.10;0.10;;;7.20;99.90;;;;;;5018002;28;20049;-78
2023/03/29 12:58:25;;;;;;;0.13;0.13;;;7.20;99.90;;;;;;5000140;28;20083;-77
2023/03/29 13:01:22;;;;;;;0.20;0.20;;;7.20;99.90;;;;;;4996556;28;20053;-77
2023/03/29 13:04:00;;;;;;;0.20;0.20;;;7.30;99.90;;;;;;4981361;28;20040;-77
2023/03/29 13:06:46;;;;;;;0.20;0.20;;;7.30;99.90;;;;;;5000996;28;20045;-79
2023/03/29 13:09:34;;;;;;;0.10;0.10;;;7.30;99.90;;;;;;5005902;28;20447;-78
2023/03/29 13:12:11;;;;;;;0.10;0.10;;;7.30;99.90;;;;;;4989317;28;20030;-77
2023/03/29 13:14:44;;;;;;;0.10;0.10;;;7.40;99.90;;;;;;5003337;28;20506;-77
2023/03/29 13:17:24;;;;;;;0.10;0.10;;;7.30;99.90;;;;;;5002162;28;20491;-76
2023/03/29 13:20:19;;;;;;;0.20;0.20;;;7.30;99.90;;;;;;5000252;28;20029;-76
2023/03/29 13:22:54;;;;;;;0.10;0.10;;;7.30;99.90;;;;;;4986869;28;20399;-76
2023/03/29 13:25:34;;;;;;;0.10;0.10;;;7.20;99.90;;;;;;5001109;28;20143;-77
2023/03/29 13:28:36;;;;;;;0.20;0.20;;;7.30;99.90;;;;;;5093897;23;20038;-77
2023/03/29 13:31:11;;;;;;;0.20;0.20;;;7.20;99.90;;;;;;4987508;28;20022;-77